NCAR-RAP Real-Time Weather Data

Output produced by METARs form (12 August 2020  18:51 UTC)
found at http://weather.rap.ucar.edu/surface/
 
KSLC 121754Z 00000KT 10SM FEW100 FEW170 31/02 A3003 RMK AO2 SLP107 ACC NW ACSL DSNT SE T03060022 10311 20206 52004
KSLC 121654Z VRB05KT 10SM SCT170 30/02 A3003 RMK AO2 SLP106 ACSL DSNT SE T03000022
KSLC 121554Z 00000KT 10SM SCT170 29/04 A3002 RMK AO2 SLP102 VIRGA T02890039
KSLC 121454Z 13004KT 10SM FEW110 BKN170 26/04 A3002 RMK AO2 SLP102 VIRGA T02560039 53009
KSLC 121354Z 14005KT 10SM FEW110 BKN170 23/06 A3001 RMK AO2 SLP097 VIRGA T02330056
KSLC 121254Z 14005KT 10SM BKN130 21/05 A3000 RMK AO2 SLP097 VIRGA T02110050
KSLC 121154Z 00000KT 10SM FEW130 SCT150 21/06 A2999 RMK AO2 SLP091 T02110056 10250 20211 53010
KSLC 121054Z 14009KT 10SM FEW150 23/06 A2997 RMK AO2 SLP084 T02280061
KSLC 120954Z 17006KT 10SM CLR 23/05 A2996 RMK AO2 SLP079 T02280050
KSLC 120854Z 12009KT 10SM CLR 23/04 A2995 RMK AO2 SLP077 T02280039 53001
KSLC 120754Z 16008KT 10SM FEW150 24/04 A2995 RMK AO2 SLP075 T02440044
KSLC 120654Z 15006KT 10SM FEW150 24/04 A2994 RMK AO2 SLP074 T02390044 403560217
KSLC 120554Z 11007KT 10SM SCT150 25/06 A2995 RMK AO2 SLP076 T02500056 10344 20250 50010
KSLC 120454Z 00000KT 10SM SCT150 26/08 A2996 RMK AO2 SLP081 T02560078
KSLC 120354Z 03010KT 10SM SCT100 SCT180 28/07 A2995 RMK AO2 SLP077 T02780067
KSLC 120254Z 34007KT 10SM SCT100 BKN200 30/03 A2992 RMK AO2 SLP066 T03000028 55001
KSLC 120154Z 35007KT 10SM SCT100 SCT180 BKN250 32/03 A2990 RMK AO2 SLP063 T03170028
KSLC 120054Z 34010KT 10SM SCT100 SCT180 BKN250 33/02 A2991 RMK AO2 SLP063 T03330022
KSLC 112354Z 35011KT 10SM SCT100 SCT180 BKN250 34/03 A2992 RMK AO2 SLP067 TCU DSNT N AND W T03440028 10356 20322 56013
KSLC 112254Z 01010KT 10SM FEW100 SCT180 SCT250 34/02 A2993 RMK AO2 SLP070 VIRGA TCU DSNT N ACSL S T03440017
KSLC 112154Z 33006KT 10SM FEW100 SCT180 SCT250 35/02 A2995 RMK AO2 SLP074 TCU DSNT E T03500017
KSLC 112054Z 33012G18KT 10SM FEW100 SCT180 SCT250 35/02 A2996 RMK AO2 SLP081 VIRGA TCU DSNT NE-SE AND SW T03500017 58011
KSLC 111954Z 30006KT 10SM FEW100 SCT180 SCT250 34/00 A2998 RMK AO2 SLP087 VIRGA ACC DSNT SW AND NW T03390000
KSLC 111854Z VRB04KT 10SM FEW110 SCT190 33/M01 A2999 RMK AO2 SLP092 VIRGA ACC SE-S AND DSNT NW T03281006
KSLC 111754Z 17013G17KT 10SM FEW110 SCT180 SCT250 32/00 A3000 RMK AO2 SLP096 VIRGA ACC DSNT SE-S AND NW T03220000 10322 20217 58002
KSLC 111654Z 17009KT 10SM FEW110 SCT180 31/01 A3001 RMK AO2 SLP101 VIRGA T03060011
KSLC 111554Z 14003KT 10SM FEW110 SCT180 28/01 A3001 RMK AO2 SLP099 VIRGA TCU DSNT NW T02830006
KSLC 111454Z 06006KT 10SM FEW110 BKN180 26/04 A3001 RMK AO2 SLP101 VIRGA TCU DSNT NW T02610039 53013
KSLC 111354Z 12004KT 10SM FEW110 BKN160 BKN220 23/05 A2999 RMK AO2 SLP095 VIRGA T02280050
KSLC 111254Z 12007KT 10SM BKN120 22/03 A2998 RMK AO2 SLP086 T02220033
KSLC 111154Z 16006KT 10SM FEW120 FEW200 22/04 A2996 RMK AO2 SLP082 T02220044 10244 20217 51001
KSLC 111054Z 13006KT 10SM FEW120 SCT200 22/03 A2996 RMK AO2 SLP082 T02220028
KSLC 110954Z 12010KT 10SM FEW120 SCT200 23/03 A2997 RMK AO2 SLP082 T02330033
KSLC 110854Z 13010KT 10SM SCT200 23/05 A2996 RMK AO2 SLP081 T02280050 55003
KSLC 110754Z 16008KT 10SM SCT200 24/02 A2995 RMK AO2 SLP078 T02390017
KSLC 110654Z 14007KT 10SM FEW200 24/02 A2997 RMK AO2 SLP084 T02390017 403500189
KSLC 110554Z 00000KT 10SM SCT200 23/09 A2997 RMK AO2 SLP088 T02330094 10350 20233 51010
KSLC 110454Z 00000KT 10SM SCT200 24/08 A2997 RMK AO2 SLP088 T02390083
KSLC 110354Z 19003KT 10SM FEW120 SCT200 27/05 A2996 RMK AO2 SLP083 T02720050
KSLC 110254Z 01008KT 10SM FEW120 SCT200 27/06 A2994 RMK AO2 SLP079 T02720056 55007
KSLC 110154Z 36008KT 10SM FEW100 FEW140 SCT200 31/02 A2993 RMK AO2 SLP074 VIRGA T03110022
KSLC 110054Z 36007KT 10SM FEW095 SCT120 SCT200 34/02 A2994 RMK AO2 SLP076 T03440017
KSLC 102354Z 34006KT 10SM FEW100 SCT200 34/02 A2996 RMK AO2 SLP085 TCU DSNT NW T03440017 10350 20306 58020
KSLC 102254Z 35012KT 10SM FEW110 SCT200 34/03 A2999 RMK AO2 SLP093 TCU DSNT NW T03440028
KSLC 102154Z 35010KT 10SM SCT110 SCT170 35/03 A3001 RMK AO2 SLP099 TCU DSNT NW T03500033
KSLC 102054Z 36007KT 10SM FEW110 SCT170 34/03 A3003 RMK AO2 SLP105 VIRGA ACC NE AND DSNT SW AND NW T03440028 58016
KSLC 101954Z 33007KT 10SM FEW110 SCT170 33/03 A3005 RMK AO2 SLP111 ACC E AND DSNT NW-NE T03280028
KSLC 101854Z 32008KT 10SM FEW110 SCT170 32/06 A3007 RMK AO2 SLP122 ACC DSNT NW T03170056